EmailTwitter


Observations de surface / France / LFBO (07630)

Régions: Québec | Canada | États-Unis | Europe | France | UK | Ailleurs
Station
Affichage
Infos & localisation pour LFBO (07630) | Aide pour décoder les METARs

Observations prises le 2019-02-16 à 09H00 UTC à TOULOUSE/BLAGNAC, FR (LFBO)

Température: 7.0 Celsius

Point de rosée: 5.0 Celsius

Humidité relative: 87%

Vents: Sud-ouest à 6 km/h ou 3 noeuds.

Pression au niveau moyen de la mer: 102.80 kilopascals.

Observation METAR:

LFBO 160900Z AUTO 21003KT 180V240 CAVOK 07/05 Q1028 NOSIG=